sensor_id;sensor_type;location;lat;lon;timestamp;temperature;humidity
20574;DHT22;10445;50.216;7.912;2022-11-02T00:01:43;9.10;54.70
20574;DHT22;10445;50.216;7.912;2022-11-02T00:04:35;9.10;55.50
20574;DHT22;10445;50.216;7.912;2022-11-02T00:07:27;9.10;56.30
20574;DHT22;10445;50.216;7.912;2022-11-02T00:10:15;9.10;56.20
20574;DHT22;10445;50.216;7.912;2022-11-02T00:13:07;9.10;56.70
20574;DHT22;10445;50.216;7.912;2022-11-02T00:16:00;9.10;57.20
20574;DHT22;10445;50.216;7.912;2022-11-02T00:18:51;9.10;57.30
20574;DHT22;10445;50.216;7.912;2022-11-02T00:21:42;9.10;57.40
20574;DHT22;10445;50.216;7.912;2022-11-02T00:24:32;9.10;57.20
20574;DHT22;10445;50.216;7.912;2022-11-02T00:27:22;9.10;57.30
20574;DHT22;10445;50.216;7.912;2022-11-02T00:30:11;9.10;57.50
20574;DHT22;10445;50.216;7.912;2022-11-02T00:33:00;9.10;58.50
20574;DHT22;10445;50.216;7.912;2022-11-02T00:35:49;9.10;57.90
20574;DHT22;10445;50.216;7.912;2022-11-02T00:38:38;9.10;57.80
20574;DHT22;10445;50.216;7.912;2022-11-02T00:41:28;9.10;58.30
20574;DHT22;10445;50.216;7.912;2022-11-02T00:44:17;9.00;59.20
20574;DHT22;10445;50.216;7.912;2022-11-02T00:47:05;9.00;60.00
20574;DHT22;10445;50.216;7.912;2022-11-02T00:49:54;8.90;61.10
20574;DHT22;10445;50.216;7.912;2022-11-02T00:52:53;8.90;61.10
20574;DHT22;10445;50.216;7.912;2022-11-02T00:55:43;9.00;61.40
20574;DHT22;10445;50.216;7.912;2022-11-02T00:58:33;9.00;61.20
20574;DHT22;10445;50.216;7.912;2022-11-02T01:01:22;9.00;61.30
20574;DHT22;10445;50.216;7.912;2022-11-02T01:04:11;9.00;62.10
20574;DHT22;10445;50.216;7.912;2022-11-02T01:07:00;9.00;61.60
20574;DHT22;10445;50.216;7.912;2022-11-02T01:09:49;9.00;61.90
20574;DHT22;10445;50.216;7.912;2022-11-02T01:12:38;9.00;62.20
20574;DHT22;10445;50.216;7.912;2022-11-02T01:15:28;9.00;62.80
20574;DHT22;10445;50.216;7.912;2022-11-02T01:18:17;9.00;63.10
20574;DHT22;10445;50.216;7.912;2022-11-02T01:21:06;9.00;63.20
20574;DHT22;10445;50.216;7.912;2022-11-02T01:23:55;9.00;63.70
20574;DHT22;10445;50.216;7.912;2022-11-02T01:26:43;8.90;64.10
20574;DHT22;10445;50.216;7.912;2022-11-02T01:29:32;8.90;64.60
20574;DHT22;10445;50.216;7.912;2022-11-02T01:32:22;9.00;64.70
20574;DHT22;10445;50.216;7.912;2022-11-02T01:35:11;9.00;64.50
20574;DHT22;10445;50.216;7.912;2022-11-02T01:37:59;9.00;64.70
20574;DHT22;10445;50.216;7.912;2022-11-02T01:40:48;9.10;64.80
20574;DHT22;10445;50.216;7.912;2022-11-02T01:43:39;9.10;66.00
20574;DHT22;10445;50.216;7.912;2022-11-02T01:46:34;9.20;65.60
20574;DHT22;10445;50.216;7.912;2022-11-02T01:49:26;9.20;64.80
20574;DHT22;10445;50.216;7.912;2022-11-02T01:52:18;9.20;65.40
20574;DHT22;10445;50.216;7.912;2022-11-02T01:55:13;9.20;65.70
20574;DHT22;10445;50.216;7.912;2022-11-02T01:58:09;9.20;65.70
20574;DHT22;10445;50.216;7.912;2022-11-02T02:00:57;9.30;65.20
20574;DHT22;10445;50.216;7.912;2022-11-02T02:03:47;9.30;65.40
20574;DHT22;10445;50.216;7.912;2022-11-02T02:06:38;9.30;64.40
20574;DHT22;10445;50.216;7.912;2022-11-02T02:09:27;9.30;65.20
20574;DHT22;10445;50.216;7.912;2022-11-02T02:12:17;9.40;65.60
20574;DHT22;10445;50.216;7.912;2022-11-02T02:15:06;9.40;64.80
20574;DHT22;10445;50.216;7.912;2022-11-02T02:18:00;9.50;64.30
20574;DHT22;10445;50.216;7.912;2022-11-02T02:21:11;9.60;62.90
20574;DHT22;10445;50.216;7.912;2022-11-02T02:24:23;9.70;62.60
20574;DHT22;10445;50.216;7.912;2022-11-02T02:27:30;9.70;61.70
20574;DHT22;10445;50.216;7.912;2022-11-02T02:30:23;9.80;61.10
20574;DHT22;10445;50.216;7.912;2022-11-02T02:33:16;9.80;60.10
20574;DHT22;10445;50.216;7.912;2022-11-02T02:36:14;9.80;60.00
20574;DHT22;10445;50.216;7.912;2022-11-02T02:39:10;9.90;58.90
20574;DHT22;10445;50.216;7.912;2022-11-02T02:42:09;9.90;58.80
20574;DHT22;10445;50.216;7.912;2022-11-02T02:45:05;9.90;59.40
20574;DHT22;10445;50.216;7.912;2022-11-02T02:48:02;9.90;59.60
20574;DHT22;10445;50.216;7.912;2022-11-02T02:50:58;9.90;60.20
20574;DHT22;10445;50.216;7.912;2022-11-02T02:53:50;9.90;59.80
20574;DHT22;10445;50.216;7.912;2022-11-02T02:56:43;9.90;60.20
20574;DHT22;10445;50.216;7.912;2022-11-02T02:59:36;9.90;60.10
20574;DHT22;10445;50.216;7.912;2022-11-02T03:02:29;10.00;60.10
20574;DHT22;10445;50.216;7.912;2022-11-02T03:05:26;9.90;61.00
20574;DHT22;10445;50.216;7.912;2022-11-02T03:08:15;10.00;60.60
20574;DHT22;10445;50.216;7.912;2022-11-02T03:11:10;10.10;60.50
20574;DHT22;10445;50.216;7.912;2022-11-02T03:14:13;10.10;58.50
20574;DHT22;10445;50.216;7.912;2022-11-02T03:17:14;10.20;57.30
20574;DHT22;10445;50.216;7.912;2022-11-02T03:20:08;10.20;57.70
20574;DHT22;10445;50.216;7.912;2022-11-02T03:23:08;10.20;57.80
20574;DHT22;10445;50.216;7.912;2022-11-02T03:26:04;10.20;58.20
20574;DHT22;10445;50.216;7.912;2022-11-02T03:28:59;10.20;58.80
20574;DHT22;10445;50.216;7.912;2022-11-02T03:31:53;10.20;58.50
20574;DHT22;10445;50.216;7.912;2022-11-02T03:34:45;10.10;59.60
20574;DHT22;10445;50.216;7.912;2022-11-02T03:37:37;10.20;58.90
20574;DHT22;10445;50.216;7.912;2022-11-02T03:40:32;10.20;59.10
20574;DHT22;10445;50.216;7.912;2022-11-02T03:43:22;10.10;59.80
20574;DHT22;10445;50.216;7.912;2022-11-02T03:46:12;10.10;60.40
20574;DHT22;10445;50.216;7.912;2022-11-02T03:49:03;10.10;61.20
20574;DHT22;10445;50.216;7.912;2022-11-02T03:51:55;10.10;62.00
20574;DHT22;10445;50.216;7.912;2022-11-02T03:54:50;10.10;62.20
20574;DHT22;10445;50.216;7.912;2022-11-02T03:57:44;10.10;62.80
20574;DHT22;10445;50.216;7.912;2022-11-02T04:00:34;10.20;62.80
20574;DHT22;10445;50.216;7.912;2022-11-02T04:03:23;10.10;62.80
20574;DHT22;10445;50.216;7.912;2022-11-02T04:06:12;10.10;62.70
20574;DHT22;10445;50.216;7.912;2022-11-02T04:09:01;10.00;62.30
20574;DHT22;10445;50.216;7.912;2022-11-02T04:11:50;10.00;63.00
20574;DHT22;10445;50.216;7.912;2022-11-02T04:15:02;9.80;64.10
20574;DHT22;10445;50.216;7.912;2022-11-02T04:18:05;9.70;66.20
20574;DHT22;10445;50.216;7.912;2022-11-02T04:21:11;9.60;68.30
20574;DHT22;10445;50.216;7.912;2022-11-02T04:23:59;9.70;69.60
20574;DHT22;10445;50.216;7.912;2022-11-02T04:27:05;9.70;69.20
20574;DHT22;10445;50.216;7.912;2022-11-02T04:29:54;9.70;69.40
20574;DHT22;10445;50.216;7.912;2022-11-02T04:32:45;9.70;70.20
20574;DHT22;10445;50.216;7.912;2022-11-02T04:35:51;9.70;70.70
20574;DHT22;10445;50.216;7.912;2022-11-02T04:38:40;9.70;70.70
20574;DHT22;10445;50.216;7.912;2022-11-02T04:41:28;9.70;71.10
20574;DHT22;10445;50.216;7.912;2022-11-02T04:44:31;9.70;71.20
20574;DHT22;10445;50.216;7.912;2022-11-02T04:47:20;9.70;71.20
20574;DHT22;10445;50.216;7.912;2022-11-02T04:50:10;9.80;71.70
20574;DHT22;10445;50.216;7.912;2022-11-02T04:53:00;9.80;70.80
20574;DHT22;10445;50.216;7.912;2022-11-02T04:55:48;9.90;71.30
20574;DHT22;10445;50.216;7.912;2022-11-02T04:58:37;10.00;68.90
20574;DHT22;10445;50.216;7.912;2022-11-02T05:01:27;10.00;68.40
20574;DHT22;10445;50.216;7.912;2022-11-02T05:04:16;10.00;67.00
20574;DHT22;10445;50.216;7.912;2022-11-02T05:07:06;9.80;67.60
20574;DHT22;10445;50.216;7.912;2022-11-02T05:09:54;9.80;67.80
20574;DHT22;10445;50.216;7.912;2022-11-02T05:12:43;9.70;69.10
20574;DHT22;10445;50.216;7.912;2022-11-02T05:15:32;9.60;69.90
20574;DHT22;10445;50.216;7.912;2022-11-02T05:18:20;9.60;71.20
20574;DHT22;10445;50.216;7.912;2022-11-02T05:21:10;9.70;70.90
20574;DHT22;10445;50.216;7.912;2022-11-02T05:24:00;9.80;70.70
20574;DHT22;10445;50.216;7.912;2022-11-02T05:26:49;9.80;70.20
20574;DHT22;10445;50.216;7.912;2022-11-02T05:29:40;9.90;70.30
20574;DHT22;10445;50.216;7.912;2022-11-02T05:32:28;9.80;69.40
20574;DHT22;10445;50.216;7.912;2022-11-02T05:35:17;9.90;68.70
20574;DHT22;10445;50.216;7.912;2022-11-02T05:38:06;10.00;67.80
20574;DHT22;10445;50.216;7.912;2022-11-02T05:40:57;10.10;65.20
20574;DHT22;10445;50.216;7.912;2022-11-02T05:43:46;10.20;65.20
20574;DHT22;10445;50.216;7.912;2022-11-02T05:46:44;10.20;63.70
20574;DHT22;10445;50.216;7.912;2022-11-02T05:49:32;10.10;63.60
20574;DHT22;10445;50.216;7.912;2022-11-02T05:52:21;10.10;65.00
20574;DHT22;10445;50.216;7.912;2022-11-02T05:55:10;10.00;65.40
20574;DHT22;10445;50.216;7.912;2022-11-02T05:58:00;9.90;66.30
20574;DHT22;10445;50.216;7.912;2022-11-02T06:00:48;9.80;67.00
20574;DHT22;10445;50.216;7.912;2022-11-02T06:03:37;9.70;67.70
20574;DHT22;10445;50.216;7.912;2022-11-02T06:06:29;9.80;67.30
20574;DHT22;10445;50.216;7.912;2022-11-02T06:09:20;9.80;65.30
20574;DHT22;10445;50.216;7.912;2022-11-02T06:12:18;9.80;64.80
20574;DHT22;10445;50.216;7.912;2022-11-02T06:15:12;9.80;65.20
20574;DHT22;10445;50.216;7.912;2022-11-02T06:18:00;9.90;66.00
20574;DHT22;10445;50.216;7.912;2022-11-02T06:20:55;9.90;66.60
20574;DHT22;10445;50.216;7.912;2022-11-02T06:23:46;10.00;65.80
20574;DHT22;10445;50.216;7.912;2022-11-02T06:26:52;9.90;64.90
20574;DHT22;10445;50.216;7.912;2022-11-02T06:29:47;9.90;66.10
20574;DHT22;10445;50.216;7.912;2022-11-02T06:33:15;9.90;66.00
20574;DHT22;10445;50.216;7.912;2022-11-02T06:37:04;9.90;66.40
20574;DHT22;10445;50.216;7.912;2022-11-02T06:40:18;9.90;66.60
20574;DHT22;10445;50.216;7.912;2022-11-02T06:47:37;9.90;64.60
20574;DHT22;10445;50.216;7.912;2022-11-02T07:10:55;9.70;60.70
20574;DHT22;10445;50.216;7.912;2022-11-02T07:13:44;9.70;60.30
20574;DHT22;10445;50.216;7.912;2022-11-02T07:16:40;9.80;58.10
20574;DHT22;10445;50.216;7.912;2022-11-02T07:19:31;9.90;57.10
20574;DHT22;10445;50.216;7.912;2022-11-02T07:22:20;10.00;54.50
20574;DHT22;10445;50.216;7.912;2022-11-02T07:25:15;10.20;53.50
20574;DHT22;10445;50.216;7.912;2022-11-02T07:28:44;10.30;51.90
20574;DHT22;10445;50.216;7.912;2022-11-02T07:31:33;10.50;48.20
20574;DHT22;10445;50.216;7.912;2022-11-02T07:34:22;10.70;45.80
20574;DHT22;10445;50.216;7.912;2022-11-02T07:37:36;10.90;42.00
20574;DHT22;10445;50.216;7.912;2022-11-02T07:40:35;10.90;43.40
20574;DHT22;10445;50.216;7.912;2022-11-02T07:43:57;10.80;44.10
20574;DHT22;10445;50.216;7.912;2022-11-02T07:47:19;10.80;42.00
20574;DHT22;10445;50.216;7.912;2022-11-02T07:50:17;10.70;44.90
20574;DHT22;10445;50.216;7.912;2022-11-02T07:53:21;10.60;46.10
20574;DHT22;10445;50.216;7.912;2022-11-02T07:56:10;10.40;45.40
20574;DHT22;10445;50.216;7.912;2022-11-02T07:59:01;10.30;48.40
20574;DHT22;10445;50.216;7.912;2022-11-02T08:01:50;10.30;49.40
20574;DHT22;10445;50.216;7.912;2022-11-02T08:04:38;10.20;50.40
20574;DHT22;10445;50.216;7.912;2022-11-02T08:07:31;10.20;48.80
20574;DHT22;10445;50.216;7.912;2022-11-02T08:10:23;10.30;49.20
20574;DHT22;10445;50.216;7.912;2022-11-02T08:13:16;10.40;49.20
20574;DHT22;10445;50.216;7.912;2022-11-02T08:16:06;10.40;49.40
20574;DHT22;10445;50.216;7.912;2022-11-02T08:18:55;10.50;48.80
20574;DHT22;10445;50.216;7.912;2022-11-02T08:21:45;10.50;48.20
20574;DHT22;10445;50.216;7.912;2022-11-02T08:24:34;10.50;48.10
20574;DHT22;10445;50.216;7.912;2022-11-02T08:27:22;10.50;47.50
20574;DHT22;10445;50.216;7.912;2022-11-02T08:30:11;10.50;47.60
20574;DHT22;10445;50.216;7.912;2022-11-02T08:33:06;10.70;46.60
20574;DHT22;10445;50.216;7.912;2022-11-02T08:36:00;10.80;43.40
20574;DHT22;10445;50.216;7.912;2022-11-02T08:38:50;10.70;40.20
20574;DHT22;10445;50.216;7.912;2022-11-02T08:41:39;10.70;41.40
20574;DHT22;10445;50.216;7.912;2022-11-02T08:44:28;10.70;40.00
20574;DHT22;10445;50.216;7.912;2022-11-02T08:47:16;10.90;38.00
20574;DHT22;10445;50.216;7.912;2022-11-02T08:50:07;11.20;35.80
20574;DHT22;10445;50.216;7.912;2022-11-02T08:53:00;11.40;32.80
20574;DHT22;10445;50.216;7.912;2022-11-02T08:55:49;11.70;30.90
20574;DHT22;10445;50.216;7.912;2022-11-02T08:58:37;11.80;23.60
20574;DHT22;10445;50.216;7.912;2022-11-02T09:01:26;12.00;23.20
20574;DHT22;10445;50.216;7.912;2022-11-02T09:04:15;12.30;17.00
20574;DHT22;10445;50.216;7.912;2022-11-02T09:07:05;12.50;16.20
20574;DHT22;10445;50.216;7.912;2022-11-02T09:09:53;12.00;16.40
20574;DHT22;10445;50.216;7.912;2022-11-02T09:12:42;11.90;18.60
20574;DHT22;10445;50.216;7.912;2022-11-02T09:15:32;11.90;20.60
20574;DHT22;10445;50.216;7.912;2022-11-02T09:18:22;12.00;20.40
20574;DHT22;10445;50.216;7.912;2022-11-02T09:21:11;11.90;19.40
20574;DHT22;10445;50.216;7.912;2022-11-02T09:24:01;11.70;17.10
20574;DHT22;10445;50.216;7.912;2022-11-02T09:26:51;11.60;19.10
20574;DHT22;10445;50.216;7.912;2022-11-02T09:29:40;11.50;20.30
20574;DHT22;10445;50.216;7.912;2022-11-02T09:32:28;11.60;22.00
20574;DHT22;10445;50.216;7.912;2022-11-02T09:35:19;11.60;19.80
20574;DHT22;10445;50.216;7.912;2022-11-02T09:38:08;11.70;20.10
20574;DHT22;10445;50.216;7.912;2022-11-02T09:41:09;11.70;22.90
20574;DHT22;10445;50.216;7.912;2022-11-02T09:44:02;11.80;22.20
20574;DHT22;10445;50.216;7.912;2022-11-02T09:46:53;11.70;20.00
20574;DHT22;10445;50.216;7.912;2022-11-02T09:50:03;11.70;19.80
20574;DHT22;10445;50.216;7.912;2022-11-02T09:52:55;11.90;25.30
20574;DHT22;10445;50.216;7.912;2022-11-02T09:55:49;12.30;21.10
20574;DHT22;10445;50.216;7.912;2022-11-02T09:58:42;12.50;16.70
20574;DHT22;10445;50.216;7.912;2022-11-02T10:01:40;12.70;14.60
20574;DHT22;10445;50.216;7.912;2022-11-02T10:05:01;12.50;13.90
20574;DHT22;10445;50.216;7.912;2022-11-02T10:08:08;12.30;14.20
20574;DHT22;10445;50.216;7.912;2022-11-02T10:11:13;12.10;17.20
20574;DHT22;10445;50.216;7.912;2022-11-02T10:14:13;12.00;16.00
20574;DHT22;10445;50.216;7.912;2022-11-02T10:17:10;11.90;17.40
20574;DHT22;10445;50.216;7.912;2022-11-02T10:20:03;12.00;17.70
20574;DHT22;10445;50.216;7.912;2022-11-02T10:23:00;12.00;13.40
20574;DHT22;10445;50.216;7.912;2022-11-02T10:26:13;12.20;17.90
20574;DHT22;10445;50.216;7.912;2022-11-02T10:29:25;12.40;15.30
20574;DHT22;10445;50.216;7.912;2022-11-02T10:32:19;12.60;14.70
20574;DHT22;10445;50.216;7.912;2022-11-02T10:35:16;12.60;14.10
20574;DHT22;10445;50.216;7.912;2022-11-02T10:38:35;12.70;12.20
20574;DHT22;10445;50.216;7.912;2022-11-02T10:41:56;12.80;11.50
20574;DHT22;10445;50.216;7.912;2022-11-02T10:45:05;13.10;10.30
20574;DHT22;10445;50.216;7.912;2022-11-02T10:48:10;13.40;10.70
20574;DHT22;10445;50.216;7.912;2022-11-02T10:51:08;13.50;7.80
20574;DHT22;10445;50.216;7.912;2022-11-02T10:54:04;13.60;6.30
20574;DHT22;10445;50.216;7.912;2022-11-02T10:56:57;13.60;2.80
20574;DHT22;10445;50.216;7.912;2022-11-02T11:00:32;13.30;2.50
20574;DHT22;10445;50.216;7.912;2022-11-02T11:03:32;13.40;4.60
20574;DHT22;10445;50.216;7.912;2022-11-02T11:06:25;13.40;4.10
20574;DHT22;10445;50.216;7.912;2022-11-02T11:09:16;13.10;4.10
20574;DHT22;10445;50.216;7.912;2022-11-02T11:12:16;13.00;6.90
20574;DHT22;10445;50.216;7.912;2022-11-02T11:15:20;12.90;4.40
20574;DHT22;10445;50.216;7.912;2022-11-02T11:18:33;12.80;4.90
20574;DHT22;10445;50.216;7.912;2022-11-02T11:21:42;12.80;6.50
20574;DHT22;10445;50.216;7.912;2022-11-02T11:24:38;12.90;5.10
20574;DHT22;10445;50.216;7.912;2022-11-02T11:27:26;13.00;3.30
20574;DHT22;10445;50.216;7.912;2022-11-02T11:30:24;13.10;2.30
20574;DHT22;10445;50.216;7.912;2022-11-02T11:33:45;13.00;4.10
20574;DHT22;10445;50.216;7.912;2022-11-02T11:36:35;13.10;4.90
20574;DHT22;10445;50.216;7.912;2022-11-02T11:39:26;13.30;4.50
20574;DHT22;10445;50.216;7.912;2022-11-02T11:42:18;13.50;1.30
20574;DHT22;10445;50.216;7.912;2022-11-02T11:45:20;13.50;1.00
20574;DHT22;10445;50.216;7.912;2022-11-02T11:48:24;13.50;1.00
20574;DHT22;10445;50.216;7.912;2022-11-02T11:51:27;13.30;1.70
20574;DHT22;10445;50.216;7.912;2022-11-02T11:54:22;13.50;1.00
20574;DHT22;10445;50.216;7.912;2022-11-02T11:57:31;13.60;1.00
20574;DHT22;10445;50.216;7.912;2022-11-02T12:00:25;13.90;1.00
20574;DHT22;10445;50.216;7.912;2022-11-02T12:03:14;14.00;1.00
20574;DHT22;10445;50.216;7.912;2022-11-02T12:06:12;14.00;1.00
20574;DHT22;10445;50.216;7.912;2022-11-02T12:09:11;14.00;1.00
20574;DHT22;10445;50.216;7.912;2022-11-02T12:12:08;14.00;1.00
20574;DHT22;10445;50.216;7.912;2022-11-02T12:15:16;14.10;1.00
20574;DHT22;10445;50.216;7.912;2022-11-02T12:18:30;14.00;1.00
20574;DHT22;10445;50.216;7.912;2022-11-02T12:21:43;14.20;1.00
20574;DHT22;10445;50.216;7.912;2022-11-02T12:25:08;14.30;1.00
20574;DHT22;10445;50.216;7.912;2022-11-02T12:28:15;14.50;1.00
20574;DHT22;10445;50.216;7.912;2022-11-02T12:31:18;15.10;1.00
20574;DHT22;10445;50.216;7.912;2022-11-02T12:37:30;15.00;1.00
20574;DHT22;10445;50.216;7.912;2022-11-02T12:40:42;14.70;1.00
20574;DHT22;10445;50.216;7.912;2022-11-02T12:43:38;14.60;1.00
20574;DHT22;10445;50.216;7.912;2022-11-02T12:46:35;15.50;1.00
20574;DHT22;10445;50.216;7.912;2022-11-02T12:49:40;15.70;1.00
20574;DHT22;10445;50.216;7.912;2022-11-02T12:52:39;15.50;1.00
20574;DHT22;10445;50.216;7.912;2022-11-02T12:55:35;15.90;1.00
20574;DHT22;10445;50.216;7.912;2022-11-02T12:58:30;16.30;1.00
20574;DHT22;10445;50.216;7.912;2022-11-02T13:01:24;16.90;1.00
20574;DHT22;10445;50.216;7.912;2022-11-02T13:04:18;17.70;1.00
20574;DHT22;10445;50.216;7.912;2022-11-02T13:07:19;18.60;1.00
20574;DHT22;10445;50.216;7.912;2022-11-02T13:10:14;18.30;1.00
20574;DHT22;10445;50.216;7.912;2022-11-02T13:13:12;17.30;1.00
20574;DHT22;10445;50.216;7.912;2022-11-02T13:16:03;17.10;1.00
20574;DHT22;10445;50.216;7.912;2022-11-02T13:18:56;17.50;1.00
20574;DHT22;10445;50.216;7.912;2022-11-02T13:21:50;17.70;1.00
20574;DHT22;10445;50.216;7.912;2022-11-02T13:24:45;18.10;1.00
20574;DHT22;10445;50.216;7.912;2022-11-02T13:27:40;18.40;1.00
20574;DHT22;10445;50.216;7.912;2022-11-02T13:30:41;18.80;1.00
20574;DHT22;10445;50.216;7.912;2022-11-02T13:33:39;18.90;1.00
20574;DHT22;10445;50.216;7.912;2022-11-02T13:36:28;19.10;1.00
20574;DHT22;10445;50.216;7.912;2022-11-02T13:39:23;18.10;1.00
20574;DHT22;10445;50.216;7.912;2022-11-02T13:46:06;15.10;1.00
20574;DHT22;10445;50.216;7.912;2022-11-02T13:49:02;14.00;1.00
20574;DHT22;10445;50.216;7.912;2022-11-02T13:51:54;13.50;1.00
20574;DHT22;10445;50.216;7.912;2022-11-02T13:55:05;13.20;1.00
20574;DHT22;10445;50.216;7.912;2022-11-02T13:57:56;13.00;1.00
20574;DHT22;10445;50.216;7.912;2022-11-02T14:00:46;12.90;1.00
20574;DHT22;10445;50.216;7.912;2022-11-02T14:03:47;12.80;1.00
20574;DHT22;10445;50.216;7.912;2022-11-02T14:06:46;12.70;1.00
20574;DHT22;10445;50.216;7.912;2022-11-02T14:09:38;12.70;1.00
20574;DHT22;10445;50.216;7.912;2022-11-02T14:12:39;12.60;1.00
20574;DHT22;10445;50.216;7.912;2022-11-02T14:15:39;12.60;1.00
20574;DHT22;10445;50.216;7.912;2022-11-02T14:18:29;12.60;1.00
20574;DHT22;10445;50.216;7.912;2022-11-02T14:21:42;12.50;1.00
20574;DHT22;10445;50.216;7.912;2022-11-02T14:28:42;12.40;1.00
20574;DHT22;10445;50.216;7.912;2022-11-02T14:31:39;12.30;1.00
20574;DHT22;10445;50.216;7.912;2022-11-02T14:34:44;12.30;1.00
20574;DHT22;10445;50.216;7.912;2022-11-02T14:38:15;12.20;1.00
20574;DHT22;10445;50.216;7.912;2022-11-02T14:41:23;12.30;1.00
20574;DHT22;10445;50.216;7.912;2022-11-02T14:45:29;12.30;1.00
20574;DHT22;10445;50.216;7.912;2022-11-02T14:48:43;12.20;1.00
20574;DHT22;10445;50.216;7.912;2022-11-02T14:51:35;12.10;1.00
20574;DHT22;10445;50.216;7.912;2022-11-02T14:54:27;11.90;1.00
20574;DHT22;10445;50.216;7.912;2022-11-02T14:57:27;11.90;1.00
20574;DHT22;10445;50.216;7.912;2022-11-02T15:00:22;11.80;1.00
20574;DHT22;10445;50.216;7.912;2022-11-02T15:03:33;11.80;1.00
20574;DHT22;10445;50.216;7.912;2022-11-02T15:06:23;11.80;1.00
20574;DHT22;10445;50.216;7.912;2022-11-02T15:12:43;11.60;1.00
20574;DHT22;10445;50.216;7.912;2022-11-02T15:15:32;11.60;1.00
20574;DHT22;10445;50.216;7.912;2022-11-02T15:18:23;11.50;1.00
20574;DHT22;10445;50.216;7.912;2022-11-02T15:21:27;11.60;1.00
20574;DHT22;10445;50.216;7.912;2022-11-02T15:24:21;11.50;1.00
20574;DHT22;10445;50.216;7.912;2022-11-02T15:27:17;11.50;1.00
20574;DHT22;10445;50.216;7.912;2022-11-02T15:30:12;11.40;1.00
20574;DHT22;10445;50.216;7.912;2022-11-02T15:33:04;11.20;1.00
20574;DHT22;10445;50.216;7.912;2022-11-02T15:35:54;11.10;1.00
20574;DHT22;10445;50.216;7.912;2022-11-02T15:38:46;11.00;1.00
20574;DHT22;10445;50.216;7.912;2022-11-02T15:41:38;10.90;1.10
20574;DHT22;10445;50.216;7.912;2022-11-02T15:48:31;10.70;3.70
20574;DHT22;10445;50.216;7.912;2022-11-02T15:51:29;10.60;4.10
20574;DHT22;10445;50.216;7.912;2022-11-02T15:54:32;10.50;5.20
20574;DHT22;10445;50.216;7.912;2022-11-02T15:57:38;10.40;5.80
20574;DHT22;10445;50.216;7.912;2022-11-02T16:00:28;10.30;6.50
20574;DHT22;10445;50.216;7.912;2022-11-02T16:03:17;10.20;6.80
20574;DHT22;10445;50.216;7.912;2022-11-02T16:06:08;10.20;7.40
20574;DHT22;10445;50.216;7.912;2022-11-02T16:08:59;10.10;10.10
20574;DHT22;10445;50.216;7.912;2022-11-02T16:12:00;10.10;12.30
20574;DHT22;10445;50.216;7.912;2022-11-02T16:14:53;10.00;12.60
20574;DHT22;10445;50.216;7.912;2022-11-02T16:17:47;9.90;13.40
20574;DHT22;10445;50.216;7.912;2022-11-02T16:21:17;9.80;13.60
20574;DHT22;10445;50.216;7.912;2022-11-02T16:24:18;9.80;13.30
20574;DHT22;10445;50.216;7.912;2022-11-02T17:36:13;9.20;21.40
20574;DHT22;10445;50.216;7.912;2022-11-02T17:39:07;9.20;21.80
20574;DHT22;10445;50.216;7.912;2022-11-02T17:41:57;9.20;21.90
20574;DHT22;10445;50.216;7.912;2022-11-02T17:45:22;9.10;22.60
20574;DHT22;10445;50.216;7.912;2022-11-02T17:48:11;9.10;22.80
20574;DHT22;10445;50.216;7.912;2022-11-02T17:51:16;9.10;23.00
20574;DHT22;10445;50.216;7.912;2022-11-02T17:54:15;9.10;23.60
20574;DHT22;10445;50.216;7.912;2022-11-02T17:57:10;9.00;23.80
20574;DHT22;10445;50.216;7.912;2022-11-02T18:00:00;9.00;23.80
20574;DHT22;10445;50.216;7.912;2022-11-02T18:02:53;9.00;24.60
20574;DHT22;10445;50.216;7.912;2022-11-02T18:05:46;8.90;25.30
20574;DHT22;10445;50.216;7.912;2022-11-02T18:08:47;9.00;24.50
20574;DHT22;10445;50.216;7.912;2022-11-02T18:11:53;9.00;23.90
20574;DHT22;10445;50.216;7.912;2022-11-02T18:14:42;9.00;23.80
20574;DHT22;10445;50.216;7.912;2022-11-02T18:17:32;9.00;25.10
20574;DHT22;10445;50.216;7.912;2022-11-02T18:20:25;8.90;25.40
20574;DHT22;10445;50.216;7.912;2022-11-02T18:23:15;8.90;25.60
20574;DHT22;10445;50.216;7.912;2022-11-02T18:26:09;8.80;26.40
20574;DHT22;10445;50.216;7.912;2022-11-02T18:28:58;8.80;27.10
20574;DHT22;10445;50.216;7.912;2022-11-02T18:31:51;8.70;28.30
20574;DHT22;10445;50.216;7.912;2022-11-02T18:34:39;8.70;28.30
20574;DHT22;10445;50.216;7.912;2022-11-02T18:37:28;8.80;28.00
20574;DHT22;10445;50.216;7.912;2022-11-02T18:40:18;8.80;28.50
20574;DHT22;10445;50.216;7.912;2022-11-02T18:43:08;8.70;29.80
20574;DHT22;10445;50.216;7.912;2022-11-02T18:45:59;8.60;30.70
20574;DHT22;10445;50.216;7.912;2022-11-02T18:48:48;8.70;30.40
20574;DHT22;10445;50.216;7.912;2022-11-02T18:51:36;8.70;29.80
20574;DHT22;10445;50.216;7.912;2022-11-02T18:54:29;8.70;30.00
20574;DHT22;10445;50.216;7.912;2022-11-02T18:57:18;8.70;29.70
20574;DHT22;10445;50.216;7.912;2022-11-02T19:00:24;8.70;30.40
20574;DHT22;10445;50.216;7.912;2022-11-02T19:03:13;8.70;30.80
20574;DHT22;10445;50.216;7.912;2022-11-02T19:06:05;8.70;30.50
20574;DHT22;10445;50.216;7.912;2022-11-02T19:09:15;8.70;30.20
20574;DHT22;10445;50.216;7.912;2022-11-02T19:12:29;8.70;30.20
20574;DHT22;10445;50.216;7.912;2022-11-02T19:15:22;8.80;30.30
20574;DHT22;10445;50.216;7.912;2022-11-02T19:18:34;8.80;30.30
20574;DHT22;10445;50.216;7.912;2022-11-02T19:21:43;8.70;30.80
20574;DHT22;10445;50.216;7.912;2022-11-02T19:25:00;8.70;31.60
20574;DHT22;10445;50.216;7.912;2022-11-02T19:28:00;8.80;31.50
20574;DHT22;10445;50.216;7.912;2022-11-02T19:30:54;8.80;31.30
20574;DHT22;10445;50.216;7.912;2022-11-02T19:34:12;8.80;31.30
20574;DHT22;10445;50.216;7.912;2022-11-02T19:37:49;8.70;32.20
20574;DHT22;10445;50.216;7.912;2022-11-02T19:41:15;8.70;32.60
20574;DHT22;10445;50.216;7.912;2022-11-02T19:44:29;8.70;32.60
20574;DHT22;10445;50.216;7.912;2022-11-02T19:47:48;8.80;32.50
20574;DHT22;10445;50.216;7.912;2022-11-02T19:50:47;8.80;32.60
20574;DHT22;10445;50.216;7.912;2022-11-02T19:53:43;8.80;32.90
20574;DHT22;10445;50.216;7.912;2022-11-02T19:56:47;8.80;32.50
20574;DHT22;10445;50.216;7.912;2022-11-02T19:59:45;9.00;31.10
20574;DHT22;10445;50.216;7.912;2022-11-02T20:02:59;9.00;31.00
20574;DHT22;10445;50.216;7.912;2022-11-02T20:06:01;8.90;31.10
20574;DHT22;10445;50.216;7.912;2022-11-02T20:08:52;8.90;30.90
20574;DHT22;10445;50.216;7.912;2022-11-02T20:11:45;8.90;31.30
20574;DHT22;10445;50.216;7.912;2022-11-02T20:14:40;8.90;31.50
20574;DHT22;10445;50.216;7.912;2022-11-02T20:17:29;8.90;31.90
20574;DHT22;10445;50.216;7.912;2022-11-02T20:21:00;8.80;32.80
20574;DHT22;10445;50.216;7.912;2022-11-02T20:24:01;8.80;33.40
20574;DHT22;10445;50.216;7.912;2022-11-02T20:27:08;8.80;34.30
20574;DHT22;10445;50.216;7.912;2022-11-02T20:30:21;8.90;33.40
20574;DHT22;10445;50.216;7.912;2022-11-02T20:33:12;9.00;33.10
20574;DHT22;10445;50.216;7.912;2022-11-02T20:36:03;8.90;33.50
20574;DHT22;10445;50.216;7.912;2022-11-02T20:39:14;8.80;34.40
20574;DHT22;10445;50.216;7.912;2022-11-02T20:42:27;8.80;35.90